Time;durP1;ratioP1;P1;durP2;ratioP2;P2;SDS_P1;SDS_P2;PMS_P1;PMS_P2;Temp;Humidity;BMP_temperature;BMP_pressure;BME280_temperature;BME280_humidity;BME280_pressure;Samples;Min_cycle;Max_cycle;Signal;HPM_P1;HPM_P2
2022/02/08 00:02:52;;;;;;;8.93;2.10;;;6.40;90.60;;;;;;2102109;28;20044;-94
2022/02/08 00:03:53;;;;;;;7.82;1.70;;;6.40;90.60;;;;;;2084223;28;20482;-95
2022/02/08 00:04:54;;;;;;;8.55;2.05;;;6.40;90.70;;;;;;2076688;28;20037;-94
2022/02/08 00:06:08;;;;;;;7.78;2.03;;;6.40;90.80;;;;;;2079097;28;20029;-92
2022/02/08 00:07:11;;;;;;;9.23;2.15;;;6.40;90.80;;;;;;2067187;28;20050;-93
2022/02/08 00:08:11;;;;;;;5.28;1.73;;;6.40;90.90;;;;;;2071149;28;20200;-92
2022/02/08 00:09:14;;;;;;;4.90;1.70;;;6.50;91.00;;;;;;2061977;28;20177;-93
2022/02/08 00:10:15;;;;;;;7.45;2.20;;;6.50;91.00;;;;;;2066065;28;20042;-93
2022/02/08 00:11:16;;;;;;;7.55;1.98;;;6.50;91.00;;;;;;2073046;28;20041;-93
2022/02/08 00:12:16;;;;;;;6.68;1.90;;;6.40;91.10;;;;;;2074833;28;20037;-93
2022/02/08 00:13:17;;;;;;;6.32;2.15;;;6.50;91.10;;;;;;2081816;28;20092;-93
2022/02/08 00:14:18;;;;;;;6.47;2.15;;;6.50;91.20;;;;;;2090855;28;20116;-93
2022/02/08 00:15:18;;;;;;;6.78;2.03;;;6.50;91.20;;;;;;2072696;28;20033;-92
2022/02/08 00:16:20;;;;;;;7.15;2.15;;;6.50;91.30;;;;;;2073409;28;20655;-93
2022/02/08 00:17:21;;;;;;;5.82;2.42;;;6.50;91.30;;;;;;2074154;28;20030;-94
2022/02/08 00:18:22;;;;;;;9.75;2.40;;;6.50;91.40;;;;;;2088456;28;20038;-93
2022/02/08 00:19:22;;;;;;;8.20;2.28;;;6.50;91.50;;;;;;2081599;28;20048;-93
2022/02/08 00:20:23;;;;;;;6.80;2.00;;;6.50;91.50;;;;;;2072869;28;20041;-92
2022/02/08 00:21:24;;;;;;;7.90;2.40;;;6.50;91.50;;;;;;2071972;28;20120;-93
2022/02/08 00:22:27;;;;;;;6.20;1.88;;;6.50;91.60;;;;;;2077900;28;20034;-92
2022/02/08 00:23:29;;;;;;;6.60;2.38;;;6.50;91.70;;;;;;2061080;28;20031;-93
2022/02/08 00:24:30;;;;;;;7.78;2.40;;;6.50;91.70;;;;;;2075701;28;20034;-93
2022/02/08 00:25:30;;;;;;;6.55;2.08;;;6.50;91.80;;;;;;2075586;28;20125;-94
2022/02/08 00:26:31;;;;;;;7.38;2.50;;;6.50;91.80;;;;;;2074984;28;20523;-93
2022/02/08 00:27:32;;;;;;;9.57;2.90;;;6.50;91.90;;;;;;2072777;28;20129;-92
2022/02/08 00:28:33;;;;;;;6.75;2.17;;;6.50;91.90;;;;;;2074962;28;20065;-92
2022/02/08 00:29:34;;;;;;;8.40;2.63;;;6.50;92.00;;;;;;2075492;28;20042;-93
2022/02/08 00:30:35;;;;;;;7.50;2.53;;;6.50;92.00;;;;;;2066321;28;20062;-92
2022/02/08 00:31:36;;;;;;;9.15;2.83;;;6.40;92.00;;;;;;2082808;28;20471;-92
2022/02/08 00:32:36;;;;;;;7.45;2.50;;;6.50;92.10;;;;;;2088373;28;20132;-92
2022/02/08 00:33:37;;;;;;;8.32;2.53;;;6.50;92.10;;;;;;2083267;28;20107;-92
2022/02/08 00:34:38;;;;;;;9.00;2.90;;;6.50;92.20;;;;;;2075148;28;20591;-91
2022/02/08 00:35:38;;;;;;;7.70;2.05;;;6.40;92.20;;;;;;2091760;28;20114;-92
2022/02/08 00:36:39;;;;;;;7.07;2.42;;;6.40;92.20;;;;;;2082617;28;20052;-92
2022/02/08 00:37:40;;;;;;;8.27;3.00;;;6.50;92.30;;;;;;2065265;28;20523;-91
2022/02/08 00:38:41;;;;;;;9.05;3.17;;;6.50;92.30;;;;;;2066297;28;20496;-92
2022/02/08 00:39:42;;;;;;;7.95;2.65;;;6.40;92.30;;;;;;2074420;28;20041;-92
2022/02/08 00:40:44;;;;;;;8.10;2.60;;;6.40;92.30;;;;;;2082760;28;20033;-92
2022/02/08 00:41:46;;;;;;;9.15;3.00;;;6.50;92.40;;;;;;2083356;28;20586;-93
2022/02/08 00:42:48;;;;;;;7.03;2.70;;;6.40;92.40;;;;;;2082015;28;20033;-93
2022/02/08 00:44:57;;;;;;;10.85;3.13;;;6.40;92.40;;;;;;2082265;28;20491;-92
2022/02/08 00:46:20;;;;;;;10.27;2.92;;;6.50;92.50;;;;;;2084131;28;20037;-93
2022/02/08 00:48:31;;;;;;;8.40;2.90;;;6.40;92.50;;;;;;2091074;28;20033;-93
2022/02/08 00:49:38;;;;;;;8.93;3.03;;;6.40;92.50;;;;;;2082925;28;20030;-93
2022/02/08 00:50:41;;;;;;;7.28;2.60;;;6.40;92.50;;;;;;2074406;28;20044;-92
2022/02/08 00:51:57;;;;;;;9.88;3.10;;;6.50;92.60;;;;;;2068926;28;20034;-93
2022/02/08 00:52:57;;;;;;;6.78;2.85;;;6.40;92.60;;;;;;2072197;28;20043;-93
2022/02/08 00:53:58;;;;;;;8.13;3.30;;;6.40;92.60;;;;;;2074679;28;20527;-93
2022/02/08 00:54:59;;;;;;;6.95;2.67;;;6.50;92.60;;;;;;2071077;28;20038;-93
2022/02/08 00:55:59;;;;;;;8.65;2.92;;;6.50;92.60;;;;;;2090172;28;20049;-93
2022/02/08 00:57:00;;;;;;;9.85;2.85;;;6.50;92.70;;;;;;2085116;28;20072;-93
2022/02/08 00:58:02;;;;;;;5.78;2.63;;;6.40;92.70;;;;;;2073610;28;20052;-92
2022/02/08 00:59:03;;;;;;;7.93;2.50;;;6.50;92.70;;;;;;2082900;28;20037;-93
2022/02/08 01:00:07;;;;;;;7.20;2.72;;;6.50;92.70;;;;;;2082494;28;20129;-93
2022/02/08 01:01:08;;;;;;;10.13;3.20;;;6.50;92.80;;;;;;2082926;28;20610;-94
2022/02/08 01:02:10;;;;;;;7.35;2.90;;;6.50;92.80;;;;;;2074473;28;20411;-94
2022/02/08 01:03:11;;;;;;;8.50;3.50;;;6.50;92.80;;;;;;2083788;28;20100;-93
2022/02/08 01:04:12;;;;;;;7.55;3.28;;;6.50;92.80;;;;;;2082762;28;20141;-93
2022/02/08 01:05:15;;;;;;;10.23;3.80;;;6.50;92.80;;;;;;2077870;28;20442;-93
2022/02/08 01:06:16;;;;;;;10.65;3.50;;;6.50;92.80;;;;;;2074456;28;20089;-93
2022/02/08 01:07:17;;;;;;;8.45;3.53;;;6.50;92.80;;;;;;2060665;28;20047;-94
2022/02/08 01:08:19;;;;;;;10.18;3.70;;;6.50;92.90;;;;;;2073925;28;20041;-93
2022/02/08 01:09:27;;;;;;;8.30;3.35;;;6.50;92.90;;;;;;2084930;28;20095;-92
2022/02/08 01:10:35;;;;;;;8.57;3.10;;;6.50;92.90;;;;;;2089955;28;20029;-93
2022/02/08 01:11:36;;;;;;;8.35;3.67;;;6.50;92.90;;;;;;2089891;28;20502;-95
2022/02/08 01:12:37;;;;;;;8.98;3.42;;;6.50;93.00;;;;;;2089729;28;20094;-94
2022/02/08 01:13:40;;;;;;;9.32;3.50;;;6.50;93.00;;;;;;2082905;28;20051;-94
2022/02/08 01:14:43;;;;;;;9.38;3.50;;;6.50;93.00;;;;;;2085863;28;20029;-93
2022/02/08 01:15:44;;;;;;;9.35;3.80;;;6.50;93.10;;;;;;2084340;28;20040;-94
2022/02/08 01:16:45;;;;;;;10.27;3.50;;;6.50;93.10;;;;;;2075390;28;20080;-94
2022/02/08 01:17:53;;;;;;;9.38;3.47;;;6.50;93.10;;;;;;2067537;28;20046;-94
2022/02/08 01:18:56;;;;;;;9.27;3.63;;;6.50;93.20;;;;;;2070641;28;20481;-94
2022/02/08 01:20:11;;;;;;;10.13;4.32;;;6.50;93.20;;;;;;2076693;28;20049;-93
2022/02/08 01:21:12;;;;;;;9.80;3.60;;;6.50;93.20;;;;;;2080646;28;20033;-94
2022/02/08 01:22:12;;;;;;;7.10;3.40;;;6.40;93.20;;;;;;2082153;28;20050;-93
2022/02/08 01:23:13;;;;;;;10.40;4.53;;;6.40;93.30;;;;;;2082772;28;20044;-93
2022/02/08 01:24:14;;;;;;;8.43;3.80;;;6.40;93.30;;;;;;2075716;28;20065;-92
2022/02/08 01:25:25;;;;;;;11.02;4.15;;;6.40;93.30;;;;;;2084610;28;20080;-93
2022/02/08 01:26:27;;;;;;;12.23;5.30;;;6.40;93.40;;;;;;2068944;28;20034;-93
2022/02/08 01:27:31;;;;;;;9.50;4.57;;;6.40;93.70;;;;;;2069154;28;20081;-93
2022/02/08 01:28:49;;;;;;;13.13;5.47;;;6.40;93.40;;;;;;2074544;28;20395;-93
2022/02/08 01:32:01;;;;;;;9.20;4.85;;;6.40;93.50;;;;;;2091668;28;20076;-93
2022/02/08 01:38:40;;;;;;;8.95;4.93;;;6.50;93.80;;;;;;2092427;28;20041;-93
2022/02/08 01:40:00;;;;;;;10.02;5.68;;;6.50;93.70;;;;;;2082977;28;20446;-93
2022/02/08 01:42:30;;;;;;;11.63;5.70;;;6.50;93.70;;;;;;2076912;28;20034;-93
2022/02/08 01:48:01;;;;;;;12.18;7.32;;;6.60;93.80;;;;;;2082604;28;20037;-93
2022/02/08 01:49:15;;;;;;;11.75;6.55;;;6.60;93.90;;;;;;2094041;28;20040;-93
2022/02/08 01:51:24;;;;;;;11.98;6.63;;;6.60;93.90;;;;;;2097358;28;20033;-94
2022/02/08 01:53:07;;;;;;;10.10;6.55;;;6.60;93.90;;;;;;2097548;28;20060;-94
2022/02/08 01:55:13;;;;;;;9.77;6.25;;;6.60;93.80;;;;;;2091937;28;20057;-93
2022/02/08 01:56:45;;;;;;;14.07;7.05;;;6.60;93.90;;;;;;2104030;28;20045;-94
2022/02/08 01:59:57;;;;;;;13.20;6.75;;;6.60;93.80;;;;;;2099057;28;20037;-94
2022/02/08 02:01:27;;;;;;;12.45;6.90;;;6.60;93.90;;;;;;2074097;28;20030;-94
2022/02/08 02:03:49;;;;;;;10.85;6.40;;;6.60;93.90;;;;;;2102619;28;20486;-95
2022/02/08 02:05:49;;;;;;;11.70;6.32;;;6.60;93.90;;;;;;2093786;28;20055;-93
2022/02/08 02:08:42;;;;;;;10.32;6.75;;;6.60;93.90;;;;;;2091706;28;20075;-95
2022/02/08 02:15:29;;;;;;;12.95;6.88;;;6.60;93.80;;;;;;2087154;28;20033;-94
2022/02/08 02:20:04;;;;;;;8.50;5.68;;;6.70;93.80;;;;;;2095481;28;20048;-94
2022/02/08 02:22:03;;;;;;;9.30;5.70;;;6.70;93.90;;;;;;2093233;28;20044;-94
2022/02/08 02:23:29;;;;;;;9.85;5.93;;;6.60;93.80;;;;;;2087455;28;20031;-94
2022/02/08 02:25:37;;;;;;;11.73;7.28;;;6.70;93.90;;;;;;2068924;28;20038;-95
2022/02/08 02:28:45;;;;;;;12.38;7.10;;;6.70;94.00;;;;;;2104333;28;20051;-93
2022/02/08 02:30:49;;;;;;;10.35;6.70;;;6.70;94.00;;;;;;2094645;28;20510;-94
2022/02/08 02:32:40;;;;;;;10.68;7.13;;;6.70;94.00;;;;;;2096700;28;20051;-94
2022/02/08 02:35:12;;;;;;;9.65;7.15;;;6.70;94.00;;;;;;2080456;28;20045;-94
2022/02/08 03:18:39;;;;;;;13.93;9.65;;;7.10;94.30;;;;;;2113681;28;20547;-94
2022/02/08 03:20:35;;;;;;;14.07;10.07;;;7.10;94.30;;;;;;2116311;28;20051;-95
2022/02/08 03:22:37;;;;;;;14.65;10.60;;;7.10;94.30;;;;;;2107811;28;20055;-95
2022/02/08 03:24:31;;;;;;;14.50;10.30;;;7.10;94.40;;;;;;2089845;28;20036;-95
2022/02/08 03:26:31;;;;;;;18.50;10.70;;;7.10;94.40;;;;;;2081334;28;20034;-94
2022/02/08 03:28:13;;;;;;;14.57;10.23;;;7.20;94.50;;;;;;2072161;28;20109;-94
2022/02/08 03:30:55;;;;;;;15.48;10.27;;;7.20;94.40;;;;;;2083253;28;20036;-94
2022/02/08 03:35:12;;;;;;;15.07;10.48;;;7.20;94.50;;;;;;2093753;28;20570;-95
2022/02/08 03:37:12;;;;;;;13.55;10.30;;;7.20;94.50;;;;;;2080662;28;20033;-94
2022/02/08 03:39:16;;;;;;;15.57;10.50;;;7.20;94.50;;;;;;2083853;28;20175;-94
2022/02/08 03:41:24;;;;;;;13.63;9.75;;;7.20;94.50;;;;;;2074017;28;20175;-96
2022/02/08 03:46:25;;;;;;;14.38;10.95;;;7.30;94.50;;;;;;2027585;29;20160;-95
2022/02/08 03:48:48;;;;;;;16.38;11.30;;;7.30;94.50;;;;;;2028280;29;20036;-95
2022/02/08 04:50:21;;;;;;;13.07;9.60;;;7.70;94.80;;;;;;2080952;28;20064;-94
2022/02/08 05:02:05;;;;;;;15.85;10.75;;;7.80;95.10;;;;;;2103886;28;20127;-92
2022/02/08 05:35:44;;;;;;;14.50;9.60;;;7.90;95.20;;;;;;2107180;28;20048;-94
2022/02/08 05:44:46;;;;;;;13.38;9.40;;;7.90;95.30;;;;;;2105565;28;20028;-94
2022/02/08 05:47:00;;;;;;;12.23;8.73;;;7.90;95.40;;;;;;2093127;28;20036;-93
2022/02/08 05:48:10;;;;;;;15.18;9.82;;;8.00;95.40;;;;;;2091614;28;20091;-94
2022/02/08 05:52:50;;;;;;;12.05;8.88;;;8.00;95.40;;;;;;2065408;28;20061;-93
2022/02/08 05:55:15;;;;;;;11.55;7.95;;;8.00;95.40;;;;;;2097923;28;20040;-95
2022/02/08 05:57:33;;;;;;;12.48;8.48;;;8.00;95.40;;;;;;2060228;28;20031;-94
2022/02/08 05:59:39;;;;;;;12.13;8.25;;;7.90;95.30;;;;;;2039097;28;20050;-95
2022/02/08 06:04:25;;;;;;;12.07;7.47;;;7.90;95.30;;;;;;2061557;28;20026;-96
2022/02/08 06:17:18;;;;;;;11.02;7.15;;;7.90;95.50;;;;;;2106334;28;20074;-96
2022/02/08 06:19:47;;;;;;;9.68;6.45;;;7.90;95.50;;;;;;2076492;28;20065;-93
2022/02/08 06:22:13;;;;;;;9.63;6.25;;;7.90;95.40;;;;;;2082132;28;20034;-92
2022/02/08 07:18:49;;;;;;;5.47;2.80;;;7.70;95.50;;;;;;2103837;28;20048;-90
2022/02/08 07:23:18;;;;;;;6.90;3.30;;;7.70;95.50;;;;;;2107791;28;20054;-92
2022/02/08 07:24:22;;;;;;;7.57;3.47;;;7.70;95.50;;;;;;2106642;28;20079;-90
2022/02/08 07:25:52;;;;;;;7.35;3.65;;;7.70;95.50;;;;;;2087693;28;20141;-93
2022/02/08 07:29:17;;;;;;;5.00;2.88;;;7.80;95.60;;;;;;2103023;28;20051;-90
2022/02/08 07:30:17;;;;;;;6.68;3.10;;;7.80;95.60;;;;;;2096642;28;20090;-91
2022/02/08 07:31:37;;;;;;;7.78;3.42;;;7.80;95.60;;;;;;2082683;28;20041;-91
2022/02/08 07:32:40;;;;;;;7.25;3.80;;;7.80;95.60;;;;;;2074892;28;20034;-90
2022/02/08 07:33:50;;;;;;;7.47;3.85;;;7.80;95.60;;;;;;2080876;28;20075;-90
2022/02/08 07:34:59;;;;;;;8.68;3.85;;;7.90;95.70;;;;;;2083393;28;20048;-88
2022/02/08 07:36:17;;;;;;;6.55;3.80;;;7.90;95.70;;;;;;2085574;28;20045;-89
2022/02/08 07:38:40;;;;;;;7.10;3.72;;;8.00;96.00;;;;;;2086677;28;20128;-89
2022/02/08 07:39:54;;;;;;;7.35;3.83;;;8.00;95.70;;;;;;2089329;28;20072;-88
2022/02/08 07:42:08;;;;;;;9.00;3.85;;;8.00;95.70;;;;;;2089240;28;20033;-88
2022/02/08 07:43:09;;;;;;;9.20;4.00;;;8.10;95.70;;;;;;2086944;28;20111;-88
2022/02/08 07:44:19;;;;;;;9.27;3.67;;;8.10;95.70;;;;;;2075548;28;20504;-88
2022/02/08 07:45:20;;;;;;;7.07;3.92;;;8.10;95.70;;;;;;2090403;28;20044;-89
2022/02/08 07:46:21;;;;;;;7.90;3.42;;;8.10;95.70;;;;;;2090218;28;20491;-89
2022/02/08 07:47:21;;;;;;;6.60;3.72;;;8.10;95.70;;;;;;2084417;28;20026;-89
2022/02/08 07:48:23;;;;;;;7.25;3.33;;;8.20;95.70;;;;;;2093504;28;20479;-90
2022/02/08 07:49:24;;;;;;;7.47;3.40;;;8.20;95.70;;;;;;2089702;28;20072;-90
2022/02/08 07:50:40;;;;;;;6.63;3.17;;;8.20;95.70;;;;;;2076762;28;20044;-88
2022/02/08 07:51:43;;;;;;;9.75;3.33;;;8.20;95.70;;;;;;2084424;28;20124;-89
2022/02/08 07:52:50;;;;;;;8.27;3.33;;;8.20;95.70;;;;;;2076491;28;20488;-89
2022/02/08 07:53:54;;;;;;;7.07;3.22;;;8.20;95.70;;;;;;2087961;28;20056;-90
2022/02/08 07:54:55;;;;;;;8.00;3.05;;;8.20;95.70;;;;;;2096376;28;20029;-89
2022/02/08 07:55:57;;;;;;;7.25;3.10;;;8.20;95.70;;;;;;2087471;28;20060;-89
2022/02/08 07:56:57;;;;;;;7.78;3.17;;;8.20;95.70;;;;;;2077508;28;20049;-89
2022/02/08 07:57:58;;;;;;;5.47;2.88;;;8.20;95.70;;;;;;2092937;28;20503;-88
2022/02/08 07:59:02;;;;;;;6.60;3.15;;;8.30;95.80;;;;;;2100359;28;20052;-87
2022/02/08 08:00:04;;;;;;;6.78;3.05;;;8.30;95.80;;;;;;2086141;28;20050;-87
2022/02/08 08:01:08;;;;;;;6.82;3.00;;;8.30;95.70;;;;;;2086305;28;20037;-88
2022/02/08 08:02:10;;;;;;;7.07;2.72;;;8.30;95.70;;;;;;2076885;28;20421;-89
2022/02/08 08:03:12;;;;;;;6.53;2.70;;;8.30;95.70;;;;;;2095036;28;20098;-89
2022/02/08 08:04:13;;;;;;;5.65;2.45;;;8.30;95.70;;;;;;2095808;28;20051;-88
2022/02/08 08:05:21;;;;;;;6.35;2.47;;;8.30;95.70;;;;;;2091027;28;20040;-90
2022/02/08 08:06:22;;;;;;;5.90;2.13;;;8.30;95.70;;;;;;2079541;28;20073;-90
2022/02/08 08:07:25;;;;;;;8.88;2.92;;;8.40;95.70;;;;;;2087403;28;20033;-89
2022/02/08 08:08:30;;;;;;;5.53;2.50;;;8.30;95.70;;;;;;2088845;28;20120;-89
2022/02/08 08:09:39;;;;;;;7.78;2.00;;;8.40;95.70;;;;;;2081885;28;20034;-89
2022/02/08 08:10:44;;;;;;;5.82;2.63;;;8.30;95.70;;;;;;2082617;28;20038;-89
2022/02/08 08:11:48;;;;;;;4.63;2.00;;;8.40;95.70;;;;;;2106003;28;20100;-89
2022/02/08 08:12:52;;;;;;;5.53;1.92;;;8.40;95.70;;;;;;2097899;28;20068;-91
2022/02/08 08:14:04;;;;;;;5.30;2.15;;;8.40;95.70;;;;;;2085294;28;20048;-89
2022/02/08 08:15:24;;;;;;;4.10;1.70;;;8.40;95.70;;;;;;2092606;28;20043;-90
2022/02/08 08:17:53;;;;;;;6.82;1.85;;;8.40;95.60;;;;;;2094704;28;20425;-89
2022/02/08 08:20:10;;;;;;;4.57;1.60;;;8.50;95.60;;;;;;2096861;28;20063;-89
2022/02/08 08:21:13;;;;;;;4.93;1.75;;;8.50;95.60;;;;;;2108225;28;20432;-90
2022/02/08 08:22:20;;;;;;;4.82;1.60;;;8.50;95.60;;;;;;2107249;28;20023;-90
2022/02/08 08:23:22;;;;;;;4.97;1.80;;;8.50;95.60;;;;;;2100418;28;20103;-89
2022/02/08 08:24:22;;;;;;;4.80;1.77;;;8.50;95.60;;;;;;2090139;28;20116;-90
2022/02/08 08:25:23;;;;;;;4.32;1.50;;;8.50;95.60;;;;;;2092066;28;20059;-89
2022/02/08 08:26:24;;;;;;;6.00;1.50;;;8.50;95.60;;;;;;2077920;28;20034;-88
2022/02/08 08:27:32;;;;;;;6.80;1.60;;;8.50;95.50;;;;;;2090748;28;20179;-89
2022/02/08 08:28:34;;;;;;;6.28;1.38;;;8.60;95.50;;;;;;2085463;28;20175;-89
2022/02/08 08:29:34;;;;;;;5.90;1.48;;;8.60;95.50;;;;;;2087803;28;20033;-90
2022/02/08 08:30:44;;;;;;;7.40;1.50;;;8.60;95.50;;;;;;2097720;28;20380;-90
2022/02/08 08:31:45;;;;;;;5.93;1.58;;;8.60;95.50;;;;;;2095358;28;20052;-88
2022/02/08 08:32:52;;;;;;;6.25;1.40;;;8.60;95.50;;;;;;2080230;28;20404;-88
2022/02/08 08:33:54;;;;;;;6.13;1.40;;;8.70;95.50;;;;;;2084304;28;20041;-89
2022/02/08 08:34:56;;;;;;;5.13;1.10;;;8.60;95.40;;;;;;2105552;28;20045;-89
2022/02/08 08:35:59;;;;;;;5.35;1.70;;;8.70;95.40;;;;;;2099121;28;20037;-89
2022/02/08 08:37:01;;;;;;;5.05;1.23;;;8.70;95.40;;;;;;2097235;28;20028;-90
2022/02/08 08:38:15;;;;;;;4.85;1.20;;;8.70;95.40;;;;;;2099334;28;20055;-89
2022/02/08 08:39:18;;;;;;;3.25;1.17;;;8.70;95.40;;;;;;2106280;28;20032;-90
2022/02/08 08:40:26;;;;;;;3.80;1.20;;;8.80;95.60;;;;;;2098840;28;20041;-88
2022/02/08 08:42:50;;;;;;;4.82;1.27;;;8.80;95.30;;;;;;2108593;28;20156;-88
2022/02/08 08:51:39;;;;;;;5.50;0.90;;;8.80;95.10;;;;;;2112193;28;20079;-89
2022/02/08 08:52:51;;;;;;;4.78;1.08;;;8.90;95.10;;;;;;2109595;28;20082;-89
2022/02/08 08:54:16;;;;;;;4.68;1.40;;;8.90;95.00;;;;;;2111595;28;20052;-88
2022/02/08 08:55:39;;;;;;;3.75;1.00;;;8.90;95.00;;;;;;2092223;28;20144;-87
2022/02/08 08:56:52;;;;;;;4.65;0.90;;;8.90;95.00;;;;;;2109321;28;20032;-89
2022/02/08 08:58:00;;;;;;;4.45;1.45;;;8.90;95.00;;;;;;2099638;28;20060;-88
2022/02/08 08:59:07;;;;;;;6.18;1.08;;;9.00;95.00;;;;;;2100417;28;20045;-88
2022/02/08 09:00:30;;;;;;;5.43;1.35;;;8.90;95.00;;;;;;2107097;28;20041;-88
2022/02/08 09:01:34;;;;;;;6.35;1.10;;;9.00;95.00;;;;;;2101090;28;20049;-90
2022/02/08 09:02:36;;;;;;;4.82;1.10;;;9.00;95.00;;;;;;2086120;28;20045;-89
2022/02/08 09:03:38;;;;;;;5.72;1.40;;;9.00;94.90;;;;;;2098502;28;20029;-89
2022/02/08 09:04:43;;;;;;;3.97;1.10;;;9.10;94.90;;;;;;2104172;28;20036;-88
2022/02/08 09:05:44;;;;;;;4.38;0.90;;;9.10;94.90;;;;;;2091995;28;20084;-87
2022/02/08 09:06:50;;;;;;;5.85;1.20;;;9.10;94.90;;;;;;2099080;28;20093;-88
2022/02/08 09:07:53;;;;;;;4.43;1.17;;;9.10;94.90;;;;;;2097256;28;20037;-88
2022/02/08 09:09:00;;;;;;;6.30;1.08;;;9.10;94.90;;;;;;2081884;28;20045;-88
2022/02/08 09:10:03;;;;;;;4.85;1.15;;;9.20;94.90;;;;;;2098566;28;20033;-89
2022/02/08 09:11:13;;;;;;;3.33;0.73;;;9.20;94.80;;;;;;2099299;28;20060;-89
2022/02/08 09:13:29;;;;;;;4.15;0.80;;;9.30;94.80;;;;;;2101446;28;19916;-89
2022/02/08 09:15:28;;;;;;;4.18;1.20;;;9.30;94.70;;;;;;2108058;28;20041;-89
2022/02/08 09:16:05;;;;;;;4.88;1.00;;;9.40;94.70;;;;;;2097203;28;20032;-90
2022/02/08 09:18:59;;;;;;;4.90;1.00;;;9.40;94.60;;;;;;2108654;28;20127;-88
2022/02/08 09:26:16;;;;;;;4.22;1.10;;;9.50;94.40;;;;;;2100025;28;20064;-89
2022/02/08 09:28:28;;;;;;;3.72;1.10;;;9.50;94.40;;;;;;2094768;28;20082;-88
2022/02/08 09:29:47;;;;;;;5.50;1.20;;;9.60;94.40;;;;;;2100556;28;20595;-89
2022/02/08 09:30:58;;;;;;;4.85;1.10;;;9.50;94.40;;;;;;2095550;28;20122;-89
2022/02/08 09:32:11;;;;;;;3.95;1.20;;;9.60;94.40;;;;;;2101615;28;20048;-89
2022/02/08 09:33:12;;;;;;;4.00;0.90;;;9.60;94.40;;;;;;2093299;28;20242;-89
2022/02/08 09:34:12;;;;;;;2.78;0.80;;;9.60;94.40;;;;;;2096474;28;20041;-89
2022/02/08 09:35:15;;;;;;;5.90;1.00;;;9.60;94.30;;;;;;2093881;28;20033;-89
2022/02/08 09:36:19;;;;;;;5.45;1.00;;;9.60;94.30;;;;;;2091058;28;20053;-88
2022/02/08 09:37:20;;;;;;;6.38;1.20;;;9.60;94.30;;;;;;2095558;28;20037;-90
2022/02/08 09:38:21;;;;;;;6.90;1.20;;;9.60;94.30;;;;;;2098311;28;20037;-90
2022/02/08 09:39:22;;;;;;;6.13;1.00;;;9.60;94.30;;;;;;2095524;28;20044;-89
2022/02/08 09:40:23;;;;;;;6.25;1.35;;;9.60;94.30;;;;;;2105095;28;20036;-90
2022/02/08 09:41:25;;;;;;;3.70;0.95;;;9.60;94.30;;;;;;2106988;28;20116;-89
2022/02/08 09:42:26;;;;;;;4.00;0.90;;;9.60;94.30;;;;;;2084831;28;20036;-87
2022/02/08 09:43:30;;;;;;;5.65;1.30;;;9.70;94.30;;;;;;2102834;28;20498;-90
2022/02/08 09:44:34;;;;;;;6.22;1.33;;;9.70;94.30;;;;;;2098488;28;20096;-88
2022/02/08 09:45:34;;;;;;;5.53;1.20;;;9.70;94.30;;;;;;2100419;28;20029;-89
2022/02/08 09:46:37;;;;;;;3.85;1.02;;;9.70;94.20;;;;;;2116162;28;20028;-88
2022/02/08 09:47:47;;;;;;;4.72;1.00;;;9.70;94.20;;;;;;2100171;28;20017;-87
2022/02/08 09:48:55;;;;;;;3.60;0.97;;;9.80;94.20;;;;;;2101979;28;20043;-88
2022/02/08 09:50:03;;;;;;;3.70;0.98;;;9.80;94.20;;;;;;2103671;28;20287;-88
2022/02/08 09:51:04;;;;;;;3.22;0.90;;;9.80;94.20;;;;;;2086019;28;20046;-87
2022/02/08 09:52:06;;;;;;;3.53;0.70;;;9.80;94.10;;;;;;2108053;28;20084;-90
2022/02/08 09:53:12;;;;;;;4.38;0.88;;;9.90;94.10;;;;;;2116317;28;20032;-88
2022/02/08 09:54:12;;;;;;;5.03;0.95;;;9.90;94.10;;;;;;2095503;28;20049;-89
2022/02/08 09:55:14;;;;;;;5.75;1.15;;;9.90;94.30;;;;;;2099426;28;20033;-89
2022/02/08 09:56:15;;;;;;;4.32;0.80;;;9.90;94.00;;;;;;2100903;28;20017;-89
2022/02/08 09:57:15;;;;;;;4.72;0.90;;;10.00;94.30;;;;;;2091897;28;20085;-90
2022/02/08 09:58:16;;;;;;;3.90;0.73;;;10.00;94.00;;;;;;2084350;28;20018;-89
2022/02/08 09:59:17;;;;;;;3.65;1.17;;;10.00;94.00;;;;;;2097923;28;20029;-90
2022/02/08 10:00:20;;;;;;;5.35;1.20;;;10.10;94.00;;;;;;2097025;28;20045;-91
2022/02/08 10:01:23;;;;;;;2.97;0.80;;;10.10;93.90;;;;;;2094845;28;20104;-90
2022/02/08 10:02:24;;;;;;;3.47;0.80;;;10.10;93.90;;;;;;2107309;28;20046;-91
2022/02/08 10:03:24;;;;;;;3.70;0.70;;;10.10;93.90;;;;;;2098499;28;20051;-90
2022/02/08 10:04:25;;;;;;;5.03;0.93;;;10.10;93.80;;;;;;2100606;28;20060;-87
2022/02/08 10:05:26;;;;;;;3.80;0.85;;;10.10;93.80;;;;;;2099982;28;20036;-89
2022/02/08 10:06:29;;;;;;;5.10;0.90;;;10.20;93.80;;;;;;2100587;28;20049;-90
2022/02/08 10:07:35;;;;;;;3.15;0.77;;;10.20;93.80;;;;;;2099467;28;20029;-90
2022/02/08 10:08:36;;;;;;;5.63;0.90;;;10.20;93.80;;;;;;2117751;28;20024;-90
2022/02/08 10:09:36;;;;;;;3.55;0.90;;;10.20;93.80;;;;;;2114122;28;20063;-90
2022/02/08 10:10:37;;;;;;;4.50;1.02;;;10.30;93.70;;;;;;2115670;28;20048;-89
2022/02/08 10:11:44;;;;;;;5.13;0.90;;;10.20;93.70;;;;;;2107246;28;20063;-88
2022/02/08 10:14:01;;;;;;;3.00;0.70;;;10.30;93.60;;;;;;2104954;28;20048;-89
2022/02/08 10:22:06;;;;;;;4.03;0.77;;;10.40;93.50;;;;;;2069470;28;20022;-89
2022/02/08 10:23:08;;;;;;;5.82;1.08;;;10.40;93.50;;;;;;2070314;28;20054;-87
2022/02/08 10:24:10;;;;;;;3.40;0.63;;;10.40;93.50;;;;;;2067480;28;20035;-88
2022/02/08 10:25:21;;;;;;;3.58;1.10;;;10.40;93.40;;;;;;2082401;28;20109;-87
2022/02/08 10:26:39;;;;;;;3.35;0.60;;;10.40;93.40;;;;;;2091475;28;20059;-88
2022/02/08 10:27:48;;;;;;;3.53;0.93;;;10.40;93.40;;;;;;2114667;27;20047;-86
2022/02/08 10:29:03;;;;;;;5.25;0.93;;;10.40;93.40;;;;;;2120580;27;20030;-88
2022/02/08 10:32:00;;;;;;;3.03;0.90;;;10.40;93.30;;;;;;2104156;28;20017;-87
2022/02/08 10:38:22;;;;;;;4.22;0.80;;;10.40;93.20;;;;;;2120944;28;20031;-86
2022/02/08 10:39:26;;;;;;;3.55;0.70;;;10.40;93.20;;;;;;2100302;28;20037;-88
2022/02/08 10:40:35;;;;;;;3.38;0.82;;;10.40;93.20;;;;;;2092689;28;20042;-88
2022/02/08 10:41:36;;;;;;;6.05;1.13;;;10.40;93.30;;;;;;2089662;28;20017;-87
2022/02/08 10:42:55;;;;;;;7.18;1.08;;;10.40;93.20;;;;;;2105609;28;20017;-85
2022/02/08 10:44:02;;;;;;;4.47;0.80;;;10.30;93.20;;;;;;2104654;28;20027;-86
2022/02/08 10:45:19;;;;;;;4.53;0.90;;;10.30;93.20;;;;;;2117068;28;20084;-87
2022/02/08 10:46:20;;;;;;;5.18;0.82;;;10.30;93.20;;;;;;2111166;28;20036;-87
2022/02/08 10:47:41;;;;;;;4.10;0.80;;;10.30;93.20;;;;;;2099205;28;20013;-86
2022/02/08 10:48:41;;;;;;;6.25;0.98;;;10.30;93.20;;;;;;2101618;28;20025;-86
2022/02/08 10:49:43;;;;;;;5.50;0.75;;;10.30;93.10;;;;;;2097449;28;20009;-86
2022/02/08 10:50:53;;;;;;;5.90;1.10;;;10.30;93.10;;;;;;2092512;28;20133;-88
2022/02/08 10:51:57;;;;;;;2.88;0.70;;;10.30;93.10;;;;;;2087117;28;20029;-87
2022/02/08 10:53:00;;;;;;;4.35;0.80;;;10.30;93.10;;;;;;2105422;28;20071;-88
2022/02/08 10:54:07;;;;;;;3.47;0.65;;;10.40;93.10;;;;;;2096287;28;20096;-88
2022/02/08 10:55:27;;;;;;;4.25;1.00;;;10.40;93.10;;;;;;2101205;28;20044;-87
2022/02/08 10:56:32;;;;;;;4.57;0.80;;;10.40;93.10;;;;;;2099161;28;20013;-87
2022/02/08 10:57:45;;;;;;;5.47;1.00;;;10.40;93.10;;;;;;2092598;28;20052;-88
2022/02/08 10:58:56;;;;;;;3.80;0.90;;;10.40;93.10;;;;;;2106309;28;20009;-88
2022/02/08 11:00:02;;;;;;;4.90;0.77;;;10.40;93.00;;;;;;2097844;28;20040;-91
2022/02/08 11:01:09;;;;;;;5.10;1.00;;;10.40;93.00;;;;;;2095753;28;20033;-92
2022/02/08 11:02:33;;;;;;;4.15;0.80;;;10.40;93.00;;;;;;2097152;28;20025;-91
2022/02/08 11:03:49;;;;;;;3.55;0.90;;;10.40;93.00;;;;;;2096825;28;20043;-89
2022/02/08 11:08:03;;;;;;;4.05;0.80;;;10.50;92.90;;;;;;2113086;28;20054;-93
2022/02/08 11:10:28;;;;;;;5.32;1.00;;;10.50;92.90;;;;;;2101247;28;20044;-91
2022/02/08 11:16:44;;;;;;;5.18;0.73;;;10.60;92.80;;;;;;2109267;28;20070;-91
2022/02/08 11:18:14;;;;;;;5.30;0.98;;;10.60;92.80;;;;;;2092401;28;20037;-92
2022/02/08 11:19:42;;;;;;;4.03;1.17;;;10.60;92.70;;;;;;2092686;28;20064;-93
2022/02/08 11:20:54;;;;;;;4.90;1.10;;;10.60;92.70;;;;;;2095644;28;20040;-93
2022/02/08 11:22:07;;;;;;;5.07;0.73;;;10.60;92.70;;;;;;2089002;28;20102;-94
2022/02/08 11:23:13;;;;;;;4.95;1.00;;;10.70;92.70;;;;;;2090434;28;20029;-92
2022/02/08 11:24:41;;;;;;;4.07;0.98;;;10.60;92.70;;;;;;2096702;28;20040;-93
2022/02/08 11:25:45;;;;;;;3.03;0.60;;;10.70;92.70;;;;;;2086282;28;20114;-93
2022/02/08 11:26:46;;;;;;;3.28;0.80;;;10.70;92.70;;;;;;2082136;28;20033;-93
2022/02/08 11:27:51;;;;;;;2.92;0.77;;;10.70;92.70;;;;;;2098956;28;20075;-92
2022/02/08 11:28:52;;;;;;;3.45;0.80;;;10.70;92.70;;;;;;2098657;28;20063;-92
2022/02/08 11:30:07;;;;;;;3.30;0.80;;;10.70;92.70;;;;;;2074689;28;20038;-93
2022/02/08 11:31:36;;;;;;;3.25;0.88;;;10.70;92.70;;;;;;2103180;28;20036;-93
2022/02/08 11:33:03;;;;;;;3.25;0.82;;;10.70;92.70;;;;;;2102546;28;20111;-92
2022/02/08 11:51:19;;;;;;;4.75;0.88;;;11.00;92.30;;;;;;2055492;28;20065;-92
2022/02/08 11:52:50;;;;;;;3.10;0.70;;;11.00;92.30;;;;;;2085253;28;20045;-92
2022/02/08 11:54:38;;;;;;;3.38;0.77;;;11.00;92.30;;;;;;2097558;28;20477;-92